sensor_id;sensor_type;location;lat;lon;timestamp;P1;durP1;ratioP1;P2;durP2;ratioP2
11006;SDS011;8186;57.652;11.968;2023-04-15T00:00:59;8.00;;;6.67;;
11006;SDS011;8186;57.652;11.968;2023-04-15T00:03:25;7.70;;;6.00;;
11006;SDS011;8186;57.652;11.968;2023-04-15T00:05:53;7.73;;;6.60;;
11006;SDS011;8186;57.652;11.968;2023-04-15T00:08:20;7.40;;;6.70;;
11006;SDS011;8186;57.652;11.968;2023-04-15T00:10:47;7.20;;;6.50;;
11006;SDS011;8186;57.652;11.968;2023-04-15T00:13:15;8.97;;;6.43;;
11006;SDS011;8186;57.652;11.968;2023-04-15T00:15:43;6.77;;;5.63;;
11006;SDS011;8186;57.652;11.968;2023-04-15T00:18:09;8.00;;;5.90;;
11006;SDS011;8186;57.652;11.968;2023-04-15T00:20:36;7.80;;;6.30;;
11006;SDS011;8186;57.652;11.968;2023-04-15T00:23:03;9.13;;;6.67;;
11006;SDS011;8186;57.652;11.968;2023-04-15T00:25:30;8.17;;;6.27;;
11006;SDS011;8186;57.652;11.968;2023-04-15T00:27:57;7.80;;;7.03;;
11006;SDS011;8186;57.652;11.968;2023-04-15T00:30:24;10.33;;;7.27;;
11006;SDS011;8186;57.652;11.968;2023-04-15T00:32:52;7.00;;;6.20;;
11006;SDS011;8186;57.652;11.968;2023-04-15T00:35:19;7.77;;;6.67;;
11006;SDS011;8186;57.652;11.968;2023-04-15T00:37:46;6.70;;;6.00;;
11006;SDS011;8186;57.652;11.968;2023-04-15T00:40:13;7.23;;;6.17;;
11006;SDS011;8186;57.652;11.968;2023-04-15T00:42:43;7.50;;;6.50;;
11006;SDS011;8186;57.652;11.968;2023-04-15T00:45:11;7.53;;;6.70;;
11006;SDS011;8186;57.652;11.968;2023-04-15T00:47:38;7.40;;;6.60;;
11006;SDS011;8186;57.652;11.968;2023-04-15T00:50:08;8.83;;;6.93;;
11006;SDS011;8186;57.652;11.968;2023-04-15T00:52:36;7.20;;;6.50;;
11006;SDS011;8186;57.652;11.968;2023-04-15T00:55:04;7.97;;;7.07;;
11006;SDS011;8186;57.652;11.968;2023-04-15T00:57:31;7.53;;;6.37;;
11006;SDS011;8186;57.652;11.968;2023-04-15T00:59:59;9.20;;;6.53;;
11006;SDS011;8186;57.652;11.968;2023-04-15T01:02:26;8.57;;;6.87;;
11006;SDS011;8186;57.652;11.968;2023-04-15T01:04:53;7.80;;;7.00;;
11006;SDS011;8186;57.652;11.968;2023-04-15T01:07:22;9.47;;;6.90;;
11006;SDS011;8186;57.652;11.968;2023-04-15T01:09:48;8.27;;;7.40;;
11006;SDS011;8186;57.652;11.968;2023-04-15T01:12:15;7.43;;;6.63;;
11006;SDS011;8186;57.652;11.968;2023-04-15T01:14:42;7.70;;;6.90;;
11006;SDS011;8186;57.652;11.968;2023-04-15T01:17:09;6.77;;;6.07;;
11006;SDS011;8186;57.652;11.968;2023-04-15T01:19:36;9.10;;;6.90;;
11006;SDS011;8186;57.652;11.968;2023-04-15T01:22:03;8.33;;;6.73;;
11006;SDS011;8186;57.652;11.968;2023-04-15T01:24:32;8.33;;;6.57;;
11006;SDS011;8186;57.652;11.968;2023-04-15T01:27:00;7.37;;;6.43;;
11006;SDS011;8186;57.652;11.968;2023-04-15T01:29:28;8.23;;;6.97;;
11006;SDS011;8186;57.652;11.968;2023-04-15T01:31:55;7.33;;;6.60;;
11006;SDS011;8186;57.652;11.968;2023-04-15T01:34:22;7.27;;;6.20;;
11006;SDS011;8186;57.652;11.968;2023-04-15T01:36:48;7.63;;;6.87;;
11006;SDS011;8186;57.652;11.968;2023-04-15T01:39:16;7.30;;;6.00;;
11006;SDS011;8186;57.652;11.968;2023-04-15T01:41:43;7.97;;;6.77;;
11006;SDS011;8186;57.652;11.968;2023-04-15T01:44:11;7.77;;;6.40;;
11006;SDS011;8186;57.652;11.968;2023-04-15T01:46:38;7.30;;;6.00;;
11006;SDS011;8186;57.652;11.968;2023-04-15T01:49:05;7.57;;;6.10;;
11006;SDS011;8186;57.652;11.968;2023-04-15T01:51:32;6.67;;;5.47;;
11006;SDS011;8186;57.652;11.968;2023-04-15T01:53:59;5.70;;;4.97;;
11006;SDS011;8186;57.652;11.968;2023-04-15T01:56:26;6.67;;;5.97;;
11006;SDS011;8186;57.652;11.968;2023-04-15T01:58:53;7.30;;;6.10;;
11006;SDS011;8186;57.652;11.968;2023-04-15T02:01:21;8.40;;;5.50;;
11006;SDS011;8186;57.652;11.968;2023-04-15T02:03:48;8.40;;;6.80;;
11006;SDS011;8186;57.652;11.968;2023-04-15T02:06:15;6.57;;;5.83;;
11006;SDS011;8186;57.652;11.968;2023-04-15T02:08:42;7.67;;;5.90;;
11006;SDS011;8186;57.652;11.968;2023-04-15T02:11:09;6.90;;;5.87;;
11006;SDS011;8186;57.652;11.968;2023-04-15T02:13:36;6.20;;;5.57;;
11006;SDS011;8186;57.652;11.968;2023-04-15T02:16:03;7.40;;;5.90;;
11006;SDS011;8186;57.652;11.968;2023-04-15T02:18:31;6.83;;;5.97;;
11006;SDS011;8186;57.652;11.968;2023-04-15T02:20:58;6.87;;;5.73;;
11006;SDS011;8186;57.652;11.968;2023-04-15T02:23:25;6.70;;;5.73;;
11006;SDS011;8186;57.652;11.968;2023-04-15T02:25:52;6.47;;;5.77;;
11006;SDS011;8186;57.652;11.968;2023-04-15T02:28:19;7.17;;;5.30;;
11006;SDS011;8186;57.652;11.968;2023-04-15T02:30:47;6.73;;;6.03;;
11006;SDS011;8186;57.652;11.968;2023-04-15T02:33:16;8.00;;;6.13;;
11006;SDS011;8186;57.652;11.968;2023-04-15T02:35:45;7.10;;;6.07;;
11006;SDS011;8186;57.652;11.968;2023-04-15T02:38:11;7.03;;;6.07;;
11006;SDS011;8186;57.652;11.968;2023-04-15T02:40:40;6.77;;;5.73;;
11006;SDS011;8186;57.652;11.968;2023-04-15T02:43:07;7.17;;;5.90;;
11006;SDS011;8186;57.652;11.968;2023-04-15T02:45:34;8.27;;;5.83;;
11006;SDS011;8186;57.652;11.968;2023-04-15T02:48:01;6.27;;;5.17;;
11006;SDS011;8186;57.652;11.968;2023-04-15T02:50:30;7.80;;;5.70;;
11006;SDS011;8186;57.652;11.968;2023-04-15T02:52:58;7.33;;;6.30;;
11006;SDS011;8186;57.652;11.968;2023-04-15T02:55:26;7.13;;;5.97;;
11006;SDS011;8186;57.652;11.968;2023-04-15T02:57:53;9.03;;;6.03;;
11006;SDS011;8186;57.652;11.968;2023-04-15T03:00:21;7.47;;;5.90;;
11006;SDS011;8186;57.652;11.968;2023-04-15T03:02:49;7.83;;;6.50;;
11006;SDS011;8186;57.652;11.968;2023-04-15T03:05:20;6.50;;;5.90;;
11006;SDS011;8186;57.652;11.968;2023-04-15T03:07:48;7.07;;;5.80;;
11006;SDS011;8186;57.652;11.968;2023-04-15T03:10:17;6.23;;;5.60;;
11006;SDS011;8186;57.652;11.968;2023-04-15T03:12:44;6.90;;;6.00;;
11006;SDS011;8186;57.652;11.968;2023-04-15T03:15:11;7.13;;;6.43;;
11006;SDS011;8186;57.652;11.968;2023-04-15T03:17:37;7.00;;;6.27;;
11006;SDS011;8186;57.652;11.968;2023-04-15T03:20:05;8.10;;;6.20;;
11006;SDS011;8186;57.652;11.968;2023-04-15T03:22:32;6.70;;;6.10;;
11006;SDS011;8186;57.652;11.968;2023-04-15T03:24:59;6.83;;;6.13;;
11006;SDS011;8186;57.652;11.968;2023-04-15T03:27:28;7.83;;;6.53;;
11006;SDS011;8186;57.652;11.968;2023-04-15T03:29:54;8.27;;;6.43;;
11006;SDS011;8186;57.652;11.968;2023-04-15T03:32:21;7.67;;;6.70;;
11006;SDS011;8186;57.652;11.968;2023-04-15T03:34:48;8.67;;;6.80;;
11006;SDS011;8186;57.652;11.968;2023-04-15T03:37:15;8.07;;;6.73;;
11006;SDS011;8186;57.652;11.968;2023-04-15T03:39:42;7.33;;;6.63;;
11006;SDS011;8186;57.652;11.968;2023-04-15T03:42:10;7.30;;;6.33;;
11006;SDS011;8186;57.652;11.968;2023-04-15T03:44:38;7.00;;;6.03;;
11006;SDS011;8186;57.652;11.968;2023-04-15T03:47:05;8.30;;;6.43;;
11006;SDS011;8186;57.652;11.968;2023-04-15T03:49:32;6.83;;;6.13;;
11006;SDS011;8186;57.652;11.968;2023-04-15T03:51:59;6.87;;;6.17;;
11006;SDS011;8186;57.652;11.968;2023-04-15T03:54:26;6.83;;;6.13;;
11006;SDS011;8186;57.652;11.968;2023-04-15T03:56:52;8.83;;;7.10;;
11006;SDS011;8186;57.652;11.968;2023-04-15T03:59:20;13.00;;;7.60;;
11006;SDS011;8186;57.652;11.968;2023-04-15T04:01:48;6.83;;;6.13;;
11006;SDS011;8186;57.652;11.968;2023-04-15T04:04:15;7.87;;;6.30;;
11006;SDS011;8186;57.652;11.968;2023-04-15T04:06:41;9.03;;;6.73;;
11006;SDS011;8186;57.652;11.968;2023-04-15T04:09:08;9.77;;;6.63;;
11006;SDS011;8186;57.652;11.968;2023-04-15T04:11:35;7.30;;;6.60;;
11006;SDS011;8186;57.652;11.968;2023-04-15T04:14:02;7.40;;;6.43;;
11006;SDS011;8186;57.652;11.968;2023-04-15T04:16:29;7.77;;;6.90;;
11006;SDS011;8186;57.652;11.968;2023-04-15T04:18:58;9.07;;;7.13;;
11006;SDS011;8186;57.652;11.968;2023-04-15T04:21:24;10.30;;;6.60;;
11006;SDS011;8186;57.652;11.968;2023-04-15T04:23:52;8.33;;;6.70;;
11006;SDS011;8186;57.652;11.968;2023-04-15T04:26:19;8.67;;;7.40;;
11006;SDS011;8186;57.652;11.968;2023-04-15T04:28:45;7.47;;;6.77;;
11006;SDS011;8186;57.652;11.968;2023-04-15T04:31:12;8.90;;;7.07;;
11006;SDS011;8186;57.652;11.968;2023-04-15T04:33:39;8.80;;;7.13;;
11006;SDS011;8186;57.652;11.968;2023-04-15T04:36:07;7.90;;;7.10;;
11006;SDS011;8186;57.652;11.968;2023-04-15T04:38:34;9.90;;;6.27;;
11006;SDS011;8186;57.652;11.968;2023-04-15T04:41:01;7.63;;;6.70;;
11006;SDS011;8186;57.652;11.968;2023-04-15T04:43:28;8.93;;;7.20;;
11006;SDS011;8186;57.652;11.968;2023-04-15T04:45:55;8.10;;;6.77;;
11006;SDS011;8186;57.652;11.968;2023-04-15T04:48:22;9.07;;;6.57;;
11006;SDS011;8186;57.652;11.968;2023-04-15T04:50:48;7.97;;;7.17;;
11006;SDS011;8186;57.652;11.968;2023-04-15T04:53:17;8.83;;;7.13;;
11006;SDS011;8186;57.652;11.968;2023-04-15T04:55:43;7.87;;;7.07;;
11006;SDS011;8186;57.652;11.968;2023-04-15T04:58:10;8.23;;;6.70;;
11006;SDS011;8186;57.652;11.968;2023-04-15T05:00:38;10.47;;;7.63;;
11006;SDS011;8186;57.652;11.968;2023-04-15T05:03:06;11.57;;;7.33;;
11006;SDS011;8186;57.652;11.968;2023-04-15T05:05:33;7.80;;;6.70;;
11006;SDS011;8186;57.652;11.968;2023-04-15T05:08:01;8.07;;;6.53;;
11006;SDS011;8186;57.652;11.968;2023-04-15T05:10:29;7.03;;;6.30;;
11006;SDS011;8186;57.652;11.968;2023-04-15T05:12:56;7.63;;;6.93;;
11006;SDS011;8186;57.652;11.968;2023-04-15T05:15:23;7.67;;;6.37;;
11006;SDS011;8186;57.652;11.968;2023-04-15T05:17:49;11.23;;;7.57;;
11006;SDS011;8186;57.652;11.968;2023-04-15T05:20:16;9.20;;;7.10;;
11006;SDS011;8186;57.652;11.968;2023-04-15T05:22:44;8.60;;;7.17;;
11006;SDS011;8186;57.652;11.968;2023-04-15T05:25:10;9.20;;;6.17;;
11006;SDS011;8186;57.652;11.968;2023-04-15T05:27:39;8.90;;;7.40;;
11006;SDS011;8186;57.652;11.968;2023-04-15T05:30:06;9.27;;;8.00;;
11006;SDS011;8186;57.652;11.968;2023-04-15T05:32:34;8.73;;;6.77;;
11006;SDS011;8186;57.652;11.968;2023-04-15T05:35:01;9.60;;;6.87;;
11006;SDS011;8186;57.652;11.968;2023-04-15T05:37:28;10.23;;;7.37;;
11006;SDS011;8186;57.652;11.968;2023-04-15T05:39:54;9.27;;;7.30;;
11006;SDS011;8186;57.652;11.968;2023-04-15T05:42:22;8.67;;;6.70;;
11006;SDS011;8186;57.652;11.968;2023-04-15T05:44:50;7.40;;;6.70;;
11006;SDS011;8186;57.652;11.968;2023-04-15T05:47:17;9.50;;;7.07;;
11006;SDS011;8186;57.652;11.968;2023-04-15T05:49:43;8.13;;;7.27;;
11006;SDS011;8186;57.652;11.968;2023-04-15T05:52:10;9.07;;;7.10;;
11006;SDS011;8186;57.652;11.968;2023-04-15T05:54:37;7.57;;;6.90;;
11006;SDS011;8186;57.652;11.968;2023-04-15T05:57:04;11.00;;;7.43;;
11006;SDS011;8186;57.652;11.968;2023-04-15T05:59:32;8.67;;;7.23;;
11006;SDS011;8186;57.652;11.968;2023-04-15T06:02:00;8.77;;;7.10;;
11006;SDS011;8186;57.652;11.968;2023-04-15T06:04:27;6.87;;;6.17;;
11006;SDS011;8186;57.652;11.968;2023-04-15T06:06:54;8.63;;;6.43;;
11006;SDS011;8186;57.652;11.968;2023-04-15T06:09:21;7.53;;;6.70;;
11006;SDS011;8186;57.652;11.968;2023-04-15T06:11:48;8.30;;;7.27;;
11006;SDS011;8186;57.652;11.968;2023-04-15T06:14:15;7.83;;;6.60;;
11006;SDS011;8186;57.652;11.968;2023-04-15T06:16:41;9.93;;;6.37;;
11006;SDS011;8186;57.652;11.968;2023-04-15T06:19:10;9.43;;;6.20;;
11006;SDS011;8186;57.652;11.968;2023-04-15T06:21:37;8.90;;;6.80;;
11006;SDS011;8186;57.652;11.968;2023-04-15T06:24:03;11.07;;;6.57;;
11006;SDS011;8186;57.652;11.968;2023-04-15T06:26:30;8.23;;;6.97;;
11006;SDS011;8186;57.652;11.968;2023-04-15T06:28:57;8.33;;;5.97;;
11006;SDS011;8186;57.652;11.968;2023-04-15T06:31:24;10.20;;;6.67;;
11006;SDS011;8186;57.652;11.968;2023-04-15T06:33:51;9.20;;;7.17;;
11006;SDS011;8186;57.652;11.968;2023-04-15T06:36:19;8.03;;;6.97;;
11006;SDS011;8186;57.652;11.968;2023-04-15T06:38:46;11.07;;;7.40;;
11006;SDS011;8186;57.652;11.968;2023-04-15T06:41:13;7.03;;;6.33;;
11006;SDS011;8186;57.652;11.968;2023-04-15T06:43:40;8.23;;;6.77;;
11006;SDS011;8186;57.652;11.968;2023-04-15T06:46:07;9.43;;;7.23;;
11006;SDS011;8186;57.652;11.968;2023-04-15T06:48:34;8.80;;;7.27;;
11006;SDS011;8186;57.652;11.968;2023-04-15T06:51:01;9.50;;;8.07;;
11006;SDS011;8186;57.652;11.968;2023-04-15T06:53:29;10.80;;;8.20;;
11006;SDS011;8186;57.652;11.968;2023-04-15T06:55:56;13.83;;;9.00;;
11006;SDS011;8186;57.652;11.968;2023-04-15T06:58:23;11.47;;;9.03;;
11006;SDS011;8186;57.652;11.968;2023-04-15T07:00:51;10.07;;;8.97;;
11006;SDS011;8186;57.652;11.968;2023-04-15T07:03:18;11.60;;;9.30;;
11006;SDS011;8186;57.652;11.968;2023-04-15T07:05:45;12.73;;;9.50;;
11006;SDS011;8186;57.652;11.968;2023-04-15T07:08:11;10.03;;;9.03;;
11006;SDS011;8186;57.652;11.968;2023-04-15T07:10:40;11.93;;;9.30;;
11006;SDS011;8186;57.652;11.968;2023-04-15T07:13:07;10.27;;;8.80;;
11006;SDS011;8186;57.652;11.968;2023-04-15T07:15:33;11.00;;;8.60;;
11006;SDS011;8186;57.652;11.968;2023-04-15T07:18:00;9.23;;;8.37;;
11006;SDS011;8186;57.652;11.968;2023-04-15T07:20:27;10.00;;;9.00;;
11006;SDS011;8186;57.652;11.968;2023-04-15T07:22:55;11.23;;;9.80;;
11006;SDS011;8186;57.652;11.968;2023-04-15T07:25:22;13.00;;;8.80;;
11006;SDS011;8186;57.652;11.968;2023-04-15T07:27:51;12.57;;;8.70;;
11006;SDS011;8186;57.652;11.968;2023-04-15T07:30:18;10.77;;;7.83;;
11006;SDS011;8186;57.652;11.968;2023-04-15T07:32:45;13.73;;;8.77;;
11006;SDS011;8186;57.652;11.968;2023-04-15T07:35:12;10.70;;;7.73;;
11006;SDS011;8186;57.652;11.968;2023-04-15T07:37:38;10.03;;;7.73;;
11006;SDS011;8186;57.652;11.968;2023-04-15T07:40:07;14.17;;;10.90;;
11006;SDS011;8186;57.652;11.968;2023-04-15T07:42:35;12.33;;;11.03;;
11006;SDS011;8186;57.652;11.968;2023-04-15T07:45:04;12.47;;;9.80;;
11006;SDS011;8186;57.652;11.968;2023-04-15T07:47:32;11.83;;;8.83;;
11006;SDS011;8186;57.652;11.968;2023-04-15T07:49:58;11.73;;;8.67;;
11006;SDS011;8186;57.652;11.968;2023-04-15T07:52:26;10.17;;;8.23;;
11006;SDS011;8186;57.652;11.968;2023-04-15T07:54:53;9.70;;;8.70;;
11006;SDS011;8186;57.652;11.968;2023-04-15T07:57:20;9.07;;;7.97;;
11006;SDS011;8186;57.652;11.968;2023-04-15T07:59:47;13.07;;;8.50;;
11006;SDS011;8186;57.652;11.968;2023-04-15T08:02:15;10.40;;;7.97;;
11006;SDS011;8186;57.652;11.968;2023-04-15T08:04:42;10.60;;;8.50;;
11006;SDS011;8186;57.652;11.968;2023-04-15T08:07:09;11.10;;;8.53;;
11006;SDS011;8186;57.652;11.968;2023-04-15T08:09:36;13.83;;;8.53;;
11006;SDS011;8186;57.652;11.968;2023-04-15T08:12:03;11.47;;;8.30;;
11006;SDS011;8186;57.652;11.968;2023-04-15T08:14:32;9.50;;;8.33;;
11006;SDS011;8186;57.652;11.968;2023-04-15T08:16:59;13.33;;;8.57;;
11006;SDS011;8186;57.652;11.968;2023-04-15T08:19:27;11.27;;;8.47;;
11006;SDS011;8186;57.652;11.968;2023-04-15T08:21:54;9.90;;;8.03;;
11006;SDS011;8186;57.652;11.968;2023-04-15T08:24:21;10.33;;;7.57;;
11006;SDS011;8186;57.652;11.968;2023-04-15T08:26:50;14.33;;;8.13;;
11006;SDS011;8186;57.652;11.968;2023-04-15T08:29:17;9.33;;;7.97;;
11006;SDS011;8186;57.652;11.968;2023-04-15T08:31:44;10.10;;;8.80;;
11006;SDS011;8186;57.652;11.968;2023-04-15T08:34:11;11.40;;;8.23;;
11006;SDS011;8186;57.652;11.968;2023-04-15T08:36:40;8.67;;;7.87;;
11006;SDS011;8186;57.652;11.968;2023-04-15T08:39:08;14.13;;;9.17;;
11006;SDS011;8186;57.652;11.968;2023-04-15T08:41:37;10.87;;;8.63;;
11006;SDS011;8186;57.652;11.968;2023-04-15T08:44:06;11.33;;;8.77;;
11006;SDS011;8186;57.652;11.968;2023-04-15T08:46:33;13.40;;;9.30;;
11006;SDS011;8186;57.652;11.968;2023-04-15T08:49:01;10.63;;;8.17;;
11006;SDS011;8186;57.652;11.968;2023-04-15T08:51:30;12.23;;;8.47;;
11006;SDS011;8186;57.652;11.968;2023-04-15T08:53:59;9.60;;;8.60;;
11006;SDS011;8186;57.652;11.968;2023-04-15T08:56:26;10.03;;;7.87;;
11006;SDS011;8186;57.652;11.968;2023-04-15T08:58:53;9.80;;;8.23;;
11006;SDS011;8186;57.652;11.968;2023-04-15T09:01:20;9.50;;;7.93;;
11006;SDS011;8186;57.652;11.968;2023-04-15T09:03:48;10.93;;;7.67;;
11006;SDS011;8186;57.652;11.968;2023-04-15T09:06:15;8.70;;;7.83;;
11006;SDS011;8186;57.652;11.968;2023-04-15T09:08:42;10.10;;;7.93;;
11006;SDS011;8186;57.652;11.968;2023-04-15T09:11:11;8.33;;;7.30;;
11006;SDS011;8186;57.652;11.968;2023-04-15T09:13:38;10.33;;;8.17;;
11006;SDS011;8186;57.652;11.968;2023-04-15T09:16:05;9.13;;;7.80;;
11006;SDS011;8186;57.652;11.968;2023-04-15T09:18:33;13.33;;;8.10;;
11006;SDS011;8186;57.652;11.968;2023-04-15T09:21:04;15.70;;;7.97;;
11006;SDS011;8186;57.652;11.968;2023-04-15T09:23:33;9.53;;;7.00;;
11006;SDS011;8186;57.652;11.968;2023-04-15T09:26:00;11.40;;;6.73;;
11006;SDS011;8186;57.652;11.968;2023-04-15T09:28:29;10.73;;;6.63;;
11006;SDS011;8186;57.652;11.968;2023-04-15T09:30:56;10.63;;;6.90;;
11006;SDS011;8186;57.652;11.968;2023-04-15T09:33:23;10.30;;;6.80;;
11006;SDS011;8186;57.652;11.968;2023-04-15T09:35:58;8.83;;;6.80;;
11006;SDS011;8186;57.652;11.968;2023-04-15T09:38:26;8.83;;;6.60;;
11006;SDS011;8186;57.652;11.968;2023-04-15T09:40:53;13.10;;;7.93;;
11006;SDS011;8186;57.652;11.968;2023-04-15T09:43:20;8.20;;;7.00;;
11006;SDS011;8186;57.652;11.968;2023-04-15T09:45:49;10.20;;;7.10;;
11006;SDS011;8186;57.652;11.968;2023-04-15T09:48:18;7.70;;;6.73;;
11006;SDS011;8186;57.652;11.968;2023-04-15T09:50:46;9.83;;;6.60;;
11006;SDS011;8186;57.652;11.968;2023-04-15T09:53:17;11.30;;;7.30;;
11006;SDS011;8186;57.652;11.968;2023-04-15T09:55:45;9.07;;;7.47;;
11006;SDS011;8186;57.652;11.968;2023-04-15T09:58:18;8.83;;;7.00;;
11006;SDS011;8186;57.652;11.968;2023-04-15T10:00:46;10.60;;;7.10;;
11006;SDS011;8186;57.652;11.968;2023-04-15T10:03:17;11.93;;;7.13;;
11006;SDS011;8186;57.652;11.968;2023-04-15T10:05:46;8.97;;;6.67;;
11006;SDS011;8186;57.652;11.968;2023-04-15T10:08:14;9.20;;;6.60;;
11006;SDS011;8186;57.652;11.968;2023-04-15T10:10:42;9.70;;;7.23;;
11006;SDS011;8186;57.652;11.968;2023-04-15T10:13:09;8.60;;;6.50;;
11006;SDS011;8186;57.652;11.968;2023-04-15T10:15:36;9.47;;;7.40;;
11006;SDS011;8186;57.652;11.968;2023-04-15T10:18:05;9.03;;;7.20;;
11006;SDS011;8186;57.652;11.968;2023-04-15T10:20:33;10.37;;;7.47;;
11006;SDS011;8186;57.652;11.968;2023-04-15T10:23:01;11.57;;;6.73;;
11006;SDS011;8186;57.652;11.968;2023-04-15T10:25:28;12.27;;;7.23;;
11006;SDS011;8186;57.652;11.968;2023-04-15T10:27:55;11.67;;;7.40;;
11006;SDS011;8186;57.652;11.968;2023-04-15T10:30:22;9.37;;;7.90;;
11006;SDS011;8186;57.652;11.968;2023-04-15T10:32:49;8.13;;;7.33;;
11006;SDS011;8186;57.652;11.968;2023-04-15T10:35:17;8.53;;;7.73;;
11006;SDS011;8186;57.652;11.968;2023-04-15T10:37:46;9.33;;;7.77;;
11006;SDS011;8186;57.652;11.968;2023-04-15T10:40:25;7.90;;;6.97;;
11006;SDS011;8186;57.652;11.968;2023-04-15T10:42:56;10.53;;;7.23;;
11006;SDS011;8186;57.652;11.968;2023-04-15T10:45:24;7.13;;;6.13;;
11006;SDS011;8186;57.652;11.968;2023-04-15T10:47:54;9.70;;;6.70;;
11006;SDS011;8186;57.652;11.968;2023-04-15T10:50:23;10.50;;;7.13;;
11006;SDS011;8186;57.652;11.968;2023-04-15T10:52:52;9.60;;;6.77;;
11006;SDS011;8186;57.652;11.968;2023-04-15T10:55:20;11.40;;;7.50;;
11006;SDS011;8186;57.652;11.968;2023-04-15T10:57:50;10.23;;;7.13;;
11006;SDS011;8186;57.652;11.968;2023-04-15T11:00:18;9.90;;;7.10;;
11006;SDS011;8186;57.652;11.968;2023-04-15T11:02:47;9.93;;;6.73;;
11006;SDS011;8186;57.652;11.968;2023-04-15T11:05:18;9.33;;;8.00;;
11006;SDS011;8186;57.652;11.968;2023-04-15T11:07:48;12.20;;;7.33;;
11006;SDS011;8186;57.652;11.968;2023-04-15T11:13:33;9.27;;;6.43;;
11006;SDS011;8186;57.652;11.968;2023-04-15T11:16:01;8.60;;;7.20;;
11006;SDS011;8186;57.652;11.968;2023-04-15T11:18:29;11.83;;;7.23;;
11006;SDS011;8186;57.652;11.968;2023-04-15T11:20:57;10.57;;;7.30;;
11006;SDS011;8186;57.652;11.968;2023-04-15T11:23:36;9.98;;;7.82;;
11006;SDS011;8186;57.652;11.968;2023-04-15T11:26:05;8.17;;;7.07;;
11006;SDS011;8186;57.652;11.968;2023-04-15T11:28:34;10.20;;;7.00;;
11006;SDS011;8186;57.652;11.968;2023-04-15T11:31:05;8.75;;;7.15;;
11006;SDS011;8186;57.652;11.968;2023-04-15T11:33:33;9.55;;;6.78;;
11006;SDS011;8186;57.652;11.968;2023-04-15T11:36:00;10.40;;;7.10;;
11006;SDS011;8186;57.652;11.968;2023-04-15T11:38:27;10.55;;;7.30;;
11006;SDS011;8186;57.652;11.968;2023-04-15T11:40:57;8.68;;;7.53;;
11006;SDS011;8186;57.652;11.968;2023-04-15T11:43:24;10.52;;;7.57;;
11006;SDS011;8186;57.652;11.968;2023-04-15T11:45:51;9.07;;;7.93;;
11006;SDS011;8186;57.652;11.968;2023-04-15T11:48:21;8.65;;;7.70;;
11006;SDS011;8186;57.652;11.968;2023-04-15T11:50:52;8.35;;;7.57;;
11006;SDS011;8186;57.652;11.968;2023-04-15T11:53:20;9.52;;;7.22;;
11006;SDS011;8186;57.652;11.968;2023-04-15T11:55:48;9.50;;;7.78;;
11006;SDS011;8186;57.652;11.968;2023-04-15T11:58:18;9.73;;;7.45;;
11006;SDS011;8186;57.652;11.968;2023-04-15T12:00:46;9.00;;;7.32;;
11006;SDS011;8186;57.652;11.968;2023-04-15T12:03:16;8.60;;;6.82;;
11006;SDS011;8186;57.652;11.968;2023-04-15T12:11:35;8.10;;;7.22;;
11006;SDS011;8186;57.652;11.968;2023-04-15T12:14:09;8.00;;;7.30;;
11006;SDS011;8186;57.652;11.968;2023-04-15T12:16:39;11.23;;;7.00;;
11006;SDS011;8186;57.652;11.968;2023-04-15T12:19:08;9.55;;;7.20;;
11006;SDS011;8186;57.652;11.968;2023-04-15T12:21:36;8.10;;;6.13;;
11006;SDS011;8186;57.652;11.968;2023-04-15T12:24:05;7.88;;;6.22;;
11006;SDS011;8186;57.652;11.968;2023-04-15T12:26:34;8.30;;;6.70;;
11006;SDS011;8186;57.652;11.968;2023-04-15T12:29:03;8.02;;;6.90;;
11006;SDS011;8186;57.652;11.968;2023-04-15T12:31:34;6.85;;;6.25;;
11006;SDS011;8186;57.652;11.968;2023-04-15T12:34:02;8.73;;;6.20;;
11006;SDS011;8186;57.652;11.968;2023-04-15T12:36:29;6.95;;;6.30;;
11006;SDS011;8186;57.652;11.968;2023-04-15T12:39:00;9.27;;;6.18;;
11006;SDS011;8186;57.652;11.968;2023-04-15T12:41:28;7.68;;;6.88;;
11006;SDS011;8186;57.652;11.968;2023-04-15T12:43:55;9.43;;;7.25;;
11006;SDS011;8186;57.652;11.968;2023-04-15T12:46:22;9.25;;;6.88;;
11006;SDS011;8186;57.652;11.968;2023-04-15T12:48:51;6.85;;;6.25;;
11006;SDS011;8186;57.652;11.968;2023-04-15T12:51:18;6.43;;;5.82;;
11006;SDS011;8186;57.652;11.968;2023-04-15T12:53:45;6.43;;;5.75;;
11006;SDS011;8186;57.652;11.968;2023-04-15T12:56:13;9.15;;;6.30;;
11006;SDS011;8186;57.652;11.968;2023-04-15T12:58:40;7.30;;;6.47;;
11006;SDS011;8186;57.652;11.968;2023-04-15T13:01:07;7.43;;;6.05;;
11006;SDS011;8186;57.652;11.968;2023-04-15T13:03:34;6.28;;;5.22;;
11006;SDS011;8186;57.652;11.968;2023-04-15T13:06:03;7.40;;;5.93;;
11006;SDS011;8186;57.652;11.968;2023-04-15T13:08:30;9.25;;;6.45;;
11006;SDS011;8186;57.652;11.968;2023-04-15T13:10:57;9.48;;;6.03;;
11006;SDS011;8186;57.652;11.968;2023-04-15T13:13:24;7.63;;;5.82;;
11006;SDS011;8186;57.652;11.968;2023-04-15T13:15:51;5.72;;;5.00;;
11006;SDS011;8186;57.652;11.968;2023-04-15T13:18:18;6.82;;;5.10;;
11006;SDS011;8186;57.652;11.968;2023-04-15T13:20:44;5.80;;;5.30;;
11006;SDS011;8186;57.652;11.968;2023-04-15T13:23:13;6.28;;;5.13;;
11006;SDS011;8186;57.652;11.968;2023-04-15T13:25:40;6.10;;;5.30;;
11006;SDS011;8186;57.652;11.968;2023-04-15T13:28:06;8.52;;;5.43;;
11006;SDS011;8186;57.652;11.968;2023-04-15T13:30:33;11.88;;;5.18;;
11006;SDS011;8186;57.652;11.968;2023-04-15T13:33:00;9.38;;;5.50;;
11006;SDS011;8186;57.652;11.968;2023-04-15T13:35:27;8.20;;;5.03;;
11006;SDS011;8186;57.652;11.968;2023-04-15T13:37:54;8.57;;;4.95;;
11006;SDS011;8186;57.652;11.968;2023-04-15T13:40:23;5.85;;;5.22;;
11006;SDS011;8186;57.652;11.968;2023-04-15T13:42:50;8.27;;;5.32;;
11006;SDS011;8186;57.652;11.968;2023-04-15T13:45:17;6.50;;;4.82;;
11006;SDS011;8186;57.652;11.968;2023-04-15T13:47:44;7.07;;;4.80;;
11006;SDS011;8186;57.652;11.968;2023-04-15T13:50:11;7.25;;;4.75;;
11006;SDS011;8186;57.652;11.968;2023-04-15T13:52:38;6.15;;;4.47;;
11006;SDS011;8186;57.652;11.968;2023-04-15T13:55:06;6.05;;;5.10;;
11006;SDS011;8186;57.652;11.968;2023-04-15T13:57:34;8.43;;;4.53;;
11006;SDS011;8186;57.652;11.968;2023-04-15T14:00:01;4.93;;;4.45;;
11006;SDS011;8186;57.652;11.968;2023-04-15T14:02:29;5.90;;;4.35;;
11006;SDS011;8186;57.652;11.968;2023-04-15T14:04:56;8.40;;;4.57;;
11006;SDS011;8186;57.652;11.968;2023-04-15T14:07:23;6.70;;;4.78;;
11006;SDS011;8186;57.652;11.968;2023-04-15T14:09:50;5.78;;;4.43;;
11006;SDS011;8186;57.652;11.968;2023-04-15T14:12:17;8.63;;;4.45;;
11006;SDS011;8186;57.652;11.968;2023-04-15T14:14:45;5.88;;;4.20;;
11006;SDS011;8186;57.652;11.968;2023-04-15T14:17:12;6.10;;;4.82;;
11006;SDS011;8186;57.652;11.968;2023-04-15T14:19:39;4.57;;;4.18;;
11006;SDS011;8186;57.652;11.968;2023-04-15T14:22:06;5.75;;;4.70;;
11006;SDS011;8186;57.652;11.968;2023-04-15T14:24:33;5.40;;;4.60;;
11006;SDS011;8186;57.652;11.968;2023-04-15T14:27:00;6.32;;;3.70;;
11006;SDS011;8186;57.652;11.968;2023-04-15T14:29:27;5.50;;;3.92;;
11006;SDS011;8186;57.652;11.968;2023-04-15T14:31:55;8.20;;;4.25;;
11006;SDS011;8186;57.652;11.968;2023-04-15T14:34:23;4.18;;;3.78;;
11006;SDS011;8186;57.652;11.968;2023-04-15T14:36:50;5.40;;;3.92;;
11006;SDS011;8186;57.652;11.968;2023-04-15T14:39:17;6.75;;;4.15;;
11006;SDS011;8186;57.652;11.968;2023-04-15T14:41:44;8.50;;;3.85;;
11006;SDS011;8186;57.652;11.968;2023-04-15T14:44:12;4.18;;;3.65;;
11006;SDS011;8186;57.652;11.968;2023-04-15T14:46:40;7.20;;;3.55;;
11006;SDS011;8186;57.652;11.968;2023-04-15T14:49:08;4.15;;;3.65;;
11006;SDS011;8186;57.652;11.968;2023-04-15T14:51:35;4.25;;;3.35;;
11006;SDS011;8186;57.652;11.968;2023-04-15T14:54:02;5.10;;;4.32;;
11006;SDS011;8186;57.652;11.968;2023-04-15T14:56:29;6.97;;;4.38;;